sensor_id;sensor_type;location;lat;lon;timestamp;pressure;altitude;pressure_sealevel;temperature;humidity
65614;BME280;52283;49.292;10.572;2023-04-22T00:01:38;95967.44;;;9.55;100.00
65614;BME280;52283;49.292;10.572;2023-04-22T00:04:04;95961.84;;;9.71;100.00
65614;BME280;52283;49.292;10.572;2023-04-22T00:06:31;95967.69;;;9.68;100.00
65614;BME280;52283;49.292;10.572;2023-04-22T00:08:59;95962.13;;;9.62;100.00
65614;BME280;52283;49.292;10.572;2023-04-22T00:11:25;95968.97;;;9.39;100.00
65614;BME280;52283;49.292;10.572;2023-04-22T00:13:52;95965.94;;;9.26;100.00
65614;BME280;52283;49.292;10.572;2023-04-22T00:16:18;95968.97;;;9.50;100.00
65614;BME280;52283;49.292;10.572;2023-04-22T00:18:45;95964.63;;;9.55;100.00
65614;BME280;52283;49.292;10.572;2023-04-22T00:21:12;95960.88;;;9.41;100.00
65614;BME280;52283;49.292;10.572;2023-04-22T00:23:38;95962.13;;;9.18;100.00
65614;BME280;52283;49.292;10.572;2023-04-22T00:26:06;95967.44;;;9.10;100.00
65614;BME280;52283;49.292;10.572;2023-04-22T00:28:32;95959.59;;;9.20;100.00
65614;BME280;52283;49.292;10.572;2023-04-22T00:30:59;95971.25;;;9.35;100.00
65614;BME280;52283;49.292;10.572;2023-04-22T00:33:27;95967.97;;;9.20;100.00
65614;BME280;52283;49.292;10.572;2023-04-22T00:35:53;95972.53;;;9.39;100.00
65614;BME280;52283;49.292;10.572;2023-04-22T00:38:20;95966.69;;;9.43;100.00
65614;BME280;52283;49.292;10.572;2023-04-22T00:40:47;95968.22;;;9.44;100.00
65614;BME280;52283;49.292;10.572;2023-04-22T00:43:15;95964.38;;;9.53;100.00
65614;BME280;52283;49.292;10.572;2023-04-22T00:45:42;95964.91;;;9.51;100.00
65614;BME280;52283;49.292;10.572;2023-04-22T00:48:10;95963.38;;;9.56;100.00
65614;BME280;52283;49.292;10.572;2023-04-22T00:50:38;95962.38;;;9.25;100.00
65614;BME280;52283;49.292;10.572;2023-04-22T00:53:04;95968.47;;;9.18;100.00
65614;BME280;52283;49.292;10.572;2023-04-22T00:55:31;95965.16;;;9.31;100.00
65614;BME280;52283;49.292;10.572;2023-04-22T00:57:59;95971.00;;;9.44;100.00
65614;BME280;52283;49.292;10.572;2023-04-22T01:00:28;95965.16;;;9.53;100.00
65614;BME280;52283;49.292;10.572;2023-04-22T01:02:55;95967.94;;;9.59;100.00
65614;BME280;52283;49.292;10.572;2023-04-22T01:05:23;95972.75;;;9.64;100.00
65614;BME280;52283;49.292;10.572;2023-04-22T01:07:49;95961.34;;;9.56;100.00
65614;BME280;52283;49.292;10.572;2023-04-22T01:10:17;95967.44;;;9.60;100.00
65614;BME280;52283;49.292;10.572;2023-04-22T01:12:43;95971.00;;;9.44;100.00
65614;BME280;52283;49.292;10.572;2023-04-22T01:15:10;95966.69;;;9.37;100.00
65614;BME280;52283;49.292;10.572;2023-04-22T01:17:38;95971.25;;;9.29;100.00
65614;BME280;52283;49.292;10.572;2023-04-22T01:20:05;95959.56;;;9.36;100.00
65614;BME280;52283;49.292;10.572;2023-04-22T01:22:35;95958.06;;;9.35;100.00
65614;BME280;52283;49.292;10.572;2023-04-22T01:25:07;95958.81;;;9.13;100.00
65614;BME280;52283;49.292;10.572;2023-04-22T01:27:34;95956.56;;;9.18;100.00
65614;BME280;52283;49.292;10.572;2023-04-22T01:30:01;95954.53;;;9.40;100.00
65614;BME280;52283;49.292;10.572;2023-04-22T01:32:28;95950.69;;;9.55;100.00
65614;BME280;52283;49.292;10.572;2023-04-22T01:34:56;95955.00;;;9.56;100.00
65614;BME280;52283;49.292;10.572;2023-04-22T01:37:23;95961.56;;;9.75;100.00
65614;BME280;52283;49.292;10.572;2023-04-22T01:39:49;95960.81;;;9.80;100.00
65614;BME280;52283;49.292;10.572;2023-04-22T01:42:18;95957.50;;;9.76;100.00
65614;BME280;52283;49.292;10.572;2023-04-22T01:44:44;95953.72;;;9.85;100.00
65614;BME280;52283;49.292;10.572;2023-04-22T01:47:11;95967.38;;;9.88;100.00
65614;BME280;52283;49.292;10.572;2023-04-22T01:49:38;95966.59;;;10.04;100.00
65614;BME280;52283;49.292;10.572;2023-04-22T01:52:04;95955.63;;;10.18;100.00
65614;BME280;52283;49.292;10.572;2023-04-22T01:54:31;95964.81;;;10.07;100.00
65614;BME280;52283;49.292;10.572;2023-04-22T01:56:58;95968.06;;;10.17;100.00
65614;BME280;52283;49.292;10.572;2023-04-22T01:59:26;95973.41;;;10.15;100.00
65614;BME280;52283;49.292;10.572;2023-04-22T02:01:52;95969.31;;;10.32;100.00
65614;BME280;52283;49.292;10.572;2023-04-22T02:04:19;95972.06;;;10.49;100.00
65614;BME280;52283;49.292;10.572;2023-04-22T02:06:45;95979.22;;;10.33;100.00
65614;BME280;52283;49.292;10.572;2023-04-22T02:09:12;95978.97;;;10.31;100.00
65614;BME280;52283;49.292;10.572;2023-04-22T02:11:38;95981.28;;;10.27;100.00
65614;BME280;52283;49.292;10.572;2023-04-22T02:14:05;95989.66;;;10.27;100.00
65614;BME280;52283;49.292;10.572;2023-04-22T02:16:33;95986.13;;;10.21;100.00
65614;BME280;52283;49.292;10.572;2023-04-22T02:18:59;95993.97;;;10.12;100.00
65614;BME280;52283;49.292;10.572;2023-04-22T02:21:27;95969.84;;;10.31;100.00
65614;BME280;52283;49.292;10.572;2023-04-22T02:23:54;95970.81;;;10.39;100.00
65614;BME280;52283;49.292;10.572;2023-04-22T02:26:20;95981.75;;;10.37;100.00
65614;BME280;52283;49.292;10.572;2023-04-22T02:28:47;95986.00;;;10.49;100.00
65614;BME280;52283;49.292;10.572;2023-04-22T02:31:14;95980.63;;;10.57;100.00
65614;BME280;52283;49.292;10.572;2023-04-22T02:33:42;95980.88;;;10.64;100.00
65614;BME280;52283;49.292;10.572;2023-04-22T02:36:08;95986.00;;;10.49;100.00
65614;BME280;52283;49.292;10.572;2023-04-22T02:38:35;95985.97;;;10.55;100.00
65614;BME280;52283;49.292;10.572;2023-04-22T02:41:02;95984.19;;;10.57;100.00
65614;BME280;52283;49.292;10.572;2023-04-22T02:43:28;95979.84;;;10.67;100.00
65614;BME280;52283;49.292;10.572;2023-04-22T02:45:55;95993.16;;;10.39;100.00
65614;BME280;52283;49.292;10.572;2023-04-22T02:48:21;95985.81;;;10.42;100.00
65614;BME280;52283;49.292;10.572;2023-04-22T02:50:49;95981.97;;;10.39;100.00
65614;BME280;52283;49.292;10.572;2023-04-22T02:53:16;95979.94;;;10.45;100.00
65614;BME280;52283;49.292;10.572;2023-04-22T02:55:42;95968.25;;;10.47;100.00
65614;BME280;52283;49.292;10.572;2023-04-22T02:58:09;95971.34;;;10.32;100.00
65614;BME280;52283;49.292;10.572;2023-04-22T03:00:35;95969.31;;;10.32;100.00
65614;BME280;52283;49.292;10.572;2023-04-22T03:03:02;95964.19;;;10.48;100.00
65614;BME280;52283;49.292;10.572;2023-04-22T03:05:29;95961.16;;;10.40;100.00
65614;BME280;52283;49.292;10.572;2023-04-22T03:07:56;95961.72;;;10.27;100.00
65614;BME280;52283;49.292;10.572;2023-04-22T03:10:23;95954.38;;;10.24;100.00
65614;BME280;52283;49.292;10.572;2023-04-22T03:12:49;95951.84;;;10.26;100.00
65614;BME280;52283;49.292;10.572;2023-04-22T03:15:16;95950.53;;;10.33;100.00
65614;BME280;52283;49.292;10.572;2023-04-22T03:17:42;95954.31;;;10.41;100.00
65614;BME280;52283;49.292;10.572;2023-04-22T03:20:09;95944.41;;;10.40;100.00
65614;BME280;52283;49.292;10.572;2023-04-22T03:22:36;95946.69;;;10.42;100.00
65614;BME280;52283;49.292;10.572;2023-04-22T03:25:05;95955.97;;;10.66;100.00
65614;BME280;52283;49.292;10.572;2023-04-22T03:27:31;95950.47;;;10.50;100.00
65614;BME280;52283;49.292;10.572;2023-04-22T03:29:58;95950.66;;;10.57;100.00
65614;BME280;52283;49.292;10.572;2023-04-22T03:32:24;95949.19;;;10.51;100.00
65614;BME280;52283;49.292;10.572;2023-04-22T03:34:51;95943.56;;;10.56;100.00
65614;BME280;52283;49.292;10.572;2023-04-22T03:37:17;95940.75;;;10.62;100.00
65614;BME280;52283;49.292;10.572;2023-04-22T03:39:43;95946.06;;;10.60;100.00
65614;BME280;52283;49.292;10.572;2023-04-22T03:42:12;95954.78;;;10.51;100.00
65614;BME280;52283;49.292;10.572;2023-04-22T03:44:39;95954.72;;;10.62;100.00
65614;BME280;52283;49.292;10.572;2023-04-22T03:47:06;95951.94;;;10.56;100.00
65614;BME280;52283;49.292;10.572;2023-04-22T03:49:32;95960.59;;;10.53;100.00
65614;BME280;52283;49.292;10.572;2023-04-22T03:51:59;95959.28;;;10.59;100.00
65614;BME280;52283;49.292;10.572;2023-04-22T03:54:25;95960.41;;;10.39;100.00
65614;BME280;52283;49.292;10.572;2023-04-22T03:56:52;95968.63;;;10.21;100.00
65614;BME280;52283;49.292;10.572;2023-04-22T03:59:20;95966.34;;;10.02;100.00
65614;BME280;52283;49.292;10.572;2023-04-22T04:01:46;95972.94;;;9.99;100.00
65614;BME280;52283;49.292;10.572;2023-04-22T04:04:13;95972.22;;;9.76;100.00
65614;BME280;52283;49.292;10.572;2023-04-22T04:06:39;95966.69;;;9.48;100.00
65614;BME280;52283;49.292;10.572;2023-04-22T04:09:06;95968.97;;;9.44;100.00
65614;BME280;52283;49.292;10.572;2023-04-22T04:11:32;95969.22;;;9.52;100.00
65614;BME280;52283;49.292;10.572;2023-04-22T04:13:59;95968.72;;;9.59;100.00
65614;BME280;52283;49.292;10.572;2023-04-22T04:16:27;95970.25;;;9.60;100.00
65614;BME280;52283;49.292;10.572;2023-04-22T04:18:53;95961.34;;;9.62;100.00
65614;BME280;52283;49.292;10.572;2023-04-22T04:21:19;95970.00;;;9.41;100.00
65614;BME280;52283;49.292;10.572;2023-04-22T04:23:46;95972.25;;;9.48;100.00
65614;BME280;52283;49.292;10.572;2023-04-22T04:26:13;95972.25;;;9.54;100.00
65614;BME280;52283;49.292;10.572;2023-04-22T04:28:39;95974.53;;;9.50;100.00
65614;BME280;52283;49.292;10.572;2023-04-22T04:31:06;95975.81;;;9.38;100.00
65614;BME280;52283;49.292;10.572;2023-04-22T04:33:34;95968.44;;;9.35;100.00
65614;BME280;52283;49.292;10.572;2023-04-22T04:36:01;95982.16;;;9.50;100.00
65614;BME280;52283;49.292;10.572;2023-04-22T04:38:28;95974.81;;;9.41;100.00
65614;BME280;52283;49.292;10.572;2023-04-22T04:40:55;95972.53;;;9.39;100.00
65614;BME280;52283;49.292;10.572;2023-04-22T04:43:22;95971.25;;;9.40;100.00
65614;BME280;52283;49.292;10.572;2023-04-22T04:45:57;95962.88;;;9.46;100.00
65614;BME280;52283;49.292;10.572;2023-04-22T04:48:25;95974.00;;;9.57;100.00
65614;BME280;52283;49.292;10.572;2023-04-22T04:50:53;95979.59;;;9.52;100.00
65614;BME280;52283;49.292;10.572;2023-04-22T04:53:20;95980.13;;;9.44;100.00
65614;BME280;52283;49.292;10.572;2023-04-22T04:55:47;95985.19;;;9.24;100.00
65614;BME280;52283;49.292;10.572;2023-04-22T04:58:13;95978.09;;;9.17;100.00
65614;BME280;52283;49.292;10.572;2023-04-22T05:00:40;95986.19;;;9.15;100.00
65614;BME280;52283;49.292;10.572;2023-04-22T05:03:06;95990.75;;;9.24;100.00
65614;BME280;52283;49.292;10.572;2023-04-22T05:05:33;95993.31;;;9.38;100.00
65614;BME280;52283;49.292;10.572;2023-04-22T05:08:01;95995.59;;;9.40;100.00
65614;BME280;52283;49.292;10.572;2023-04-22T05:10:27;95984.94;;;9.44;100.00
65614;BME280;52283;49.292;10.572;2023-04-22T05:12:54;95993.81;;;9.59;100.00
65614;BME280;52283;49.292;10.572;2023-04-22T05:15:20;95988.72;;;9.74;100.00
65614;BME280;52283;49.292;10.572;2023-04-22T05:17:47;95994.56;;;9.71;100.00
65614;BME280;52283;49.292;10.572;2023-04-22T05:20:13;95981.59;;;9.85;100.00
65614;BME280;52283;49.292;10.572;2023-04-22T05:22:40;95990.47;;;10.00;100.00
65614;BME280;52283;49.292;10.572;2023-04-22T05:25:09;95989.88;;;10.18;100.00
65614;BME280;52283;49.292;10.572;2023-04-22T05:27:36;95995.47;;;10.29;100.00
65614;BME280;52283;49.292;10.572;2023-04-22T05:30:03;95986.97;;;10.63;100.00
65614;BME280;52283;49.292;10.572;2023-04-22T05:32:30;95976.06;;;11.06;100.00
65614;BME280;52283;49.292;10.572;2023-04-22T05:34:56;95974.22;;;11.14;100.00
65614;BME280;52283;49.292;10.572;2023-04-22T05:37:23;95977.94;;;11.28;100.00
65614;BME280;52283;49.292;10.572;2023-04-22T05:39:49;95972.72;;;11.43;100.00
65614;BME280;52283;49.292;10.572;2023-04-22T05:42:17;95971.13;;;11.53;100.00
65614;BME280;52283;49.292;10.572;2023-04-22T05:44:44;95972.06;;;11.61;100.00
65614;BME280;52283;49.292;10.572;2023-04-22T05:47:10;95974.34;;;11.63;100.00
65614;BME280;52283;49.292;10.572;2023-04-22T05:49:37;95974.56;;;11.65;97.60
65614;BME280;52283;49.292;10.572;2023-04-22T05:52:03;95969.44;;;12.24;95.74
65614;BME280;52283;49.292;10.572;2023-04-22T05:54:30;95966.84;;;12.31;92.80
65614;BME280;52283;49.292;10.572;2023-04-22T05:56:56;95972.84;;;12.60;92.43
65614;BME280;52283;49.292;10.572;2023-04-22T05:59:25;95969.97;;;12.65;89.98
65614;BME280;52283;49.292;10.572;2023-04-22T06:01:51;95959.91;;;12.75;88.43
65614;BME280;52283;49.292;10.572;2023-04-22T06:04:18;95967.47;;;12.80;89.18
65614;BME280;52283;49.292;10.572;2023-04-22T06:06:44;95963.16;;;12.79;86.48
65614;BME280;52283;49.292;10.572;2023-04-22T06:09:11;95965.94;;;13.17;88.64
65614;BME280;52283;49.292;10.572;2023-04-22T06:11:38;95964.59;;;13.24;84.94
65614;BME280;52283;49.292;10.572;2023-04-22T06:14:05;95967.53;;;13.31;85.67
65614;BME280;52283;49.292;10.572;2023-04-22T06:16:32;95965.72;;;13.34;82.08
65614;BME280;52283;49.292;10.572;2023-04-22T06:18:59;95962.31;;;13.03;83.46
65614;BME280;52283;49.292;10.572;2023-04-22T06:21:25;95966.97;;;13.20;86.90
65614;BME280;52283;49.292;10.572;2023-04-22T06:23:52;95972.31;;;13.36;88.35
65614;BME280;52283;49.292;10.572;2023-04-22T06:26:19;95958.53;;;13.52;83.79
65614;BME280;52283;49.292;10.572;2023-04-22T06:28:45;95971.53;;;13.55;85.65
65614;BME280;52283;49.292;10.572;2023-04-22T06:31:12;95960.88;;;13.80;84.10
65614;BME280;52283;49.292;10.572;2023-04-22T06:33:40;95957.88;;;13.91;82.57
65614;BME280;52283;49.292;10.572;2023-04-22T06:36:06;95966.13;;;14.02;81.86
65614;BME280;52283;49.292;10.572;2023-04-22T06:38:33;95952.28;;;14.04;81.29
65614;BME280;52283;49.292;10.572;2023-04-22T06:40:59;95949.59;;;13.98;79.67
65614;BME280;52283;49.292;10.572;2023-04-22T06:43:26;95950.97;;;13.79;78.85
65614;BME280;52283;49.292;10.572;2023-04-22T06:45:52;95948.06;;;14.11;80.81
65614;BME280;52283;49.292;10.572;2023-04-22T06:48:19;95950.34;;;14.52;78.53
65614;BME280;52283;49.292;10.572;2023-04-22T06:50:46;95942.78;;;15.07;76.64
65614;BME280;52283;49.292;10.572;2023-04-22T06:53:13;95941.03;;;14.70;74.29
65614;BME280;52283;49.292;10.572;2023-04-22T06:55:39;95938.56;;;14.53;74.56
65614;BME280;52283;49.292;10.572;2023-04-22T06:58:06;95935.09;;;15.08;73.46
65614;BME280;52283;49.292;10.572;2023-04-22T07:00:32;95940.72;;;14.08;74.32
65614;BME280;52283;49.292;10.572;2023-04-22T07:02:59;95947.41;;;14.84;74.59
65614;BME280;52283;49.292;10.572;2023-04-22T07:05:25;95947.53;;;14.25;73.23
65614;BME280;52283;49.292;10.572;2023-04-22T07:07:53;95952.91;;;14.37;75.89
65614;BME280;52283;49.292;10.572;2023-04-22T07:10:20;95946.22;;;15.13;72.79
65614;BME280;52283;49.292;10.572;2023-04-22T07:12:46;95944.44;;;14.89;72.87
65614;BME280;52283;49.292;10.572;2023-04-22T07:15:12;95952.00;;;15.29;74.02
65614;BME280;52283;49.292;10.572;2023-04-22T07:17:39;95950.81;;;15.03;71.07
65614;BME280;52283;49.292;10.572;2023-04-22T07:20:06;95947.81;;;15.22;71.39
65614;BME280;52283;49.292;10.572;2023-04-22T07:22:33;95949.66;;;15.40;73.78
65614;BME280;52283;49.292;10.572;2023-04-22T07:25:01;95937.81;;;15.76;71.63
65614;BME280;52283;49.292;10.572;2023-04-22T07:27:28;95930.78;;;16.11;68.25
65614;BME280;52283;49.292;10.572;2023-04-22T07:29:54;95931.25;;;16.02;67.41
65614;BME280;52283;49.292;10.572;2023-04-22T07:32:21;95934.31;;;16.04;69.85
65614;BME280;52283;49.292;10.572;2023-04-22T07:34:47;95931.78;;;16.57;67.40
65614;BME280;52283;49.292;10.572;2023-04-22T07:37:13;95923.16;;;16.99;64.99
65614;BME280;52283;49.292;10.572;2023-04-22T07:39:40;95922.25;;;17.12;63.10
65614;BME280;52283;49.292;10.572;2023-04-22T07:42:08;95923.56;;;17.11;63.30
65614;BME280;52283;49.292;10.572;2023-04-22T07:44:34;95921.13;;;16.35;62.50
65614;BME280;52283;49.292;10.572;2023-04-22T07:47:01;95934.94;;;16.17;66.52
65614;BME280;52283;49.292;10.572;2023-04-22T07:49:27;95927.41;;;16.85;65.50
65614;BME280;52283;49.292;10.572;2023-04-22T07:51:53;95935.84;;;16.69;66.00
65614;BME280;52283;49.292;10.572;2023-04-22T07:54:20;95935.09;;;17.43;65.51
65614;BME280;52283;49.292;10.572;2023-04-22T07:56:46;95920.31;;;17.73;62.46
65614;BME280;52283;49.292;10.572;2023-04-22T07:59:14;95927.59;;;17.61;62.98
65614;BME280;52283;49.292;10.572;2023-04-22T08:01:41;95925.13;;;17.34;61.61
65614;BME280;52283;49.292;10.572;2023-04-22T08:04:07;95934.88;;;16.67;64.90
65614;BME280;52283;49.292;10.572;2023-04-22T08:06:34;95936.78;;;17.38;62.85
65614;BME280;52283;49.292;10.572;2023-04-22T08:09:00;95938.34;;;17.62;62.14
65614;BME280;52283;49.292;10.572;2023-04-22T08:11:27;95928.59;;;17.79;61.91
65614;BME280;52283;49.292;10.572;2023-04-22T08:13:53;95937.56;;;16.15;65.85
65614;BME280;52283;49.292;10.572;2023-04-22T08:16:21;95935.03;;;17.13;64.81
65614;BME280;52283;49.292;10.572;2023-04-22T08:18:47;95918.03;;;17.72;61.28
65614;BME280;52283;49.292;10.572;2023-04-22T08:21:16;95931.91;;;17.31;62.93
65614;BME280;52283;49.292;10.572;2023-04-22T08:23:42;95917.41;;;18.26;61.31
65614;BME280;52283;49.292;10.572;2023-04-22T08:26:09;95917.09;;;17.77;60.57
65614;BME280;52283;49.292;10.572;2023-04-22T08:28:39;95916.19;;;18.75;60.14
65614;BME280;52283;49.292;10.572;2023-04-22T08:31:05;95913.25;;;18.27;59.36
65614;BME280;52283;49.292;10.572;2023-04-22T08:33:34;95911.41;;;18.15;60.71
65614;BME280;52283;49.292;10.572;2023-04-22T08:36:01;95904.00;;;18.98;58.49
65614;BME280;52283;49.292;10.572;2023-04-22T08:38:28;95904.06;;;17.51;60.24
65614;BME280;52283;49.292;10.572;2023-04-22T08:40:55;95910.44;;;17.36;60.66
65614;BME280;52283;49.292;10.572;2023-04-22T08:43:24;95891.41;;;18.20;58.45
65614;BME280;52283;49.292;10.572;2023-04-22T08:45:51;95899.81;;;18.51;57.97
65614;BME280;52283;49.292;10.572;2023-04-22T08:48:18;95900.25;;;18.32;57.86
65614;BME280;52283;49.292;10.572;2023-04-22T08:50:47;95891.88;;;18.57;56.87
65614;BME280;52283;49.292;10.572;2023-04-22T08:53:13;95885.25;;;19.42;54.98
65614;BME280;52283;49.292;10.572;2023-04-22T08:55:42;95886.13;;;20.02;53.91
65614;BME280;52283;49.292;10.572;2023-04-22T08:58:09;95870.44;;;20.19;53.12
65614;BME280;52283;49.292;10.572;2023-04-22T09:00:37;95871.84;;;20.96;51.75
65614;BME280;52283;49.292;10.572;2023-04-22T09:03:05;95880.88;;;19.74;52.02
65614;BME280;52283;49.292;10.572;2023-04-22T09:05:32;95879.88;;;19.54;51.91
65614;BME280;52283;49.292;10.572;2023-04-22T09:08:01;95876.03;;;20.09;51.82
65614;BME280;52283;49.292;10.572;2023-04-22T09:10:28;95880.63;;;19.55;52.00
65614;BME280;52283;49.292;10.572;2023-04-22T09:12:55;95862.81;;;20.63;51.57
65614;BME280;52283;49.292;10.572;2023-04-22T09:15:22;95855.50;;;21.14;49.46
65614;BME280;52283;49.292;10.572;2023-04-22T09:17:50;95864.38;;;20.57;51.80
65614;BME280;52283;49.292;10.572;2023-04-22T09:20:17;95854.69;;;20.60;52.08
65614;BME280;52283;49.292;10.572;2023-04-22T09:22:45;95867.34;;;20.93;51.65
65614;BME280;52283;49.292;10.572;2023-04-22T09:25:18;95869.03;;;20.27;51.00
65614;BME280;52283;49.292;10.572;2023-04-22T09:27:47;95864.91;;;20.90;50.80
65614;BME280;52283;49.292;10.572;2023-04-22T09:30:15;95874.59;;;20.00;51.33
65614;BME280;52283;49.292;10.572;2023-04-22T09:32:50;95870.13;;;21.11;49.60
65614;BME280;52283;49.292;10.572;2023-04-22T09:35:22;95883.00;;;20.67;49.44
65614;BME280;52283;49.292;10.572;2023-04-22T09:37:51;95881.16;;;20.45;51.00
65614;BME280;52283;49.292;10.572;2023-04-22T09:40:19;95882.09;;;20.48;50.40
65614;BME280;52283;49.292;10.572;2023-04-22T09:42:50;95890.38;;;20.11;50.25
65614;BME280;52283;49.292;10.572;2023-04-22T09:45:30;95886.88;;;20.03;51.39
65614;BME280;52283;49.292;10.572;2023-04-22T09:48:00;95894.06;;;19.79;53.04
65614;BME280;52283;49.292;10.572;2023-04-22T09:50:27;95881.16;;;20.45;49.38
65614;BME280;52283;49.292;10.572;2023-04-22T09:52:55;95864.59;;;21.30;47.87
65614;BME280;52283;49.292;10.572;2023-04-22T09:55:25;95866.28;;;20.54;51.19
65614;BME280;52283;49.292;10.572;2023-04-22T09:57:52;95860.00;;;20.90;51.47
65614;BME280;52283;49.292;10.572;2023-04-22T10:00:20;95849.41;;;20.04;51.25
65614;BME280;52283;49.292;10.572;2023-04-22T10:02:47;95844.56;;;20.32;50.33
65614;BME280;52283;49.292;10.572;2023-04-22T10:05:13;95836.59;;;21.26;46.19
65614;BME280;52283;49.292;10.572;2023-04-22T10:07:40;95845.81;;;20.73;48.10
65614;BME280;52283;49.292;10.572;2023-04-22T10:10:08;95836.53;;;21.17;46.35
65614;BME280;52283;49.292;10.572;2023-04-22T10:12:36;95822.31;;;20.90;43.88
65614;BME280;52283;49.292;10.572;2023-04-22T10:15:03;95838.31;;;20.68;45.20
65614;BME280;52283;49.292;10.572;2023-04-22T10:17:32;95835.94;;;20.91;46.01
65614;BME280;52283;49.292;10.572;2023-04-22T10:19:59;95847.59;;;20.34;49.24
65614;BME280;52283;49.292;10.572;2023-04-22T10:22:29;95841.88;;;21.40;47.14
65614;BME280;52283;49.292;10.572;2023-04-22T10:24:56;95839.72;;;21.57;46.42
65614;BME280;52283;49.292;10.572;2023-04-22T10:27:23;95842.94;;;20.90;46.02
65614;BME280;52283;49.292;10.572;2023-04-22T10:29:51;95844.41;;;21.09;46.94
65614;BME280;52283;49.292;10.572;2023-04-22T10:32:24;95851.94;;;20.69;47.77
65614;BME280;52283;49.292;10.572;2023-04-22T10:35:07;95843.34;;;21.68;47.32
65614;BME280;52283;49.292;10.572;2023-04-22T10:37:33;95847.84;;;21.34;47.39
65614;BME280;52283;49.292;10.572;2023-04-22T10:40:08;95837.59;;;21.95;47.10
65614;BME280;52283;49.292;10.572;2023-04-22T10:42:35;95838.56;;;22.45;44.81
65614;BME280;52283;49.292;10.572;2023-04-22T10:45:04;95840.03;;;21.61;46.25
65614;BME280;52283;49.292;10.572;2023-04-22T10:47:32;95846.50;;;21.35;46.99
65614;BME280;52283;49.292;10.572;2023-04-22T10:50:16;95835.34;;;20.93;47.65
65614;BME280;52283;49.292;10.572;2023-04-22T10:52:46;95844.53;;;21.28;46.31
65614;BME280;52283;49.292;10.572;2023-04-22T10:55:13;95845.63;;;21.42;47.39
65614;BME280;52283;49.292;10.572;2023-04-22T10:57:41;95843.09;;;20.65;48.30
65614;BME280;52283;49.292;10.572;2023-04-22T11:00:24;95834.53;;;21.37;48.37
65614;BME280;52283;49.292;10.572;2023-04-22T11:02:54;95830.75;;;22.17;47.04
65614;BME280;52283;49.292;10.572;2023-04-22T11:05:31;95821.56;;;21.89;45.67
65614;BME280;52283;49.292;10.572;2023-04-22T11:08:01;95834.75;;;21.21;48.14
65614;BME280;52283;49.292;10.572;2023-04-22T11:10:33;95829.69;;;21.56;46.85
65614;BME280;52283;49.292;10.572;2023-04-22T11:13:01;95834.34;;;22.27;48.27
65614;BME280;52283;49.292;10.572;2023-04-22T11:15:34;95824.72;;;22.03;47.21
65614;BME280;52283;49.292;10.572;2023-04-22T11:18:01;95821.66;;;21.72;47.50
65614;BME280;52283;49.292;10.572;2023-04-22T11:20:28;95836.19;;;20.86;50.04
65614;BME280;52283;49.292;10.572;2023-04-22T11:22:56;95828.88;;;20.83;48.31
65614;BME280;52283;49.292;10.572;2023-04-22T11:25:24;95831.13;;;20.84;48.84
65614;BME280;52283;49.292;10.572;2023-04-22T11:27:51;95826.03;;;21.10;49.24
65614;BME280;52283;49.292;10.572;2023-04-22T11:30:19;95836.31;;;21.32;51.57
65614;BME280;52283;49.292;10.572;2023-04-22T11:32:48;95819.84;;;21.67;49.63
65614;BME280;52283;49.292;10.572;2023-04-22T11:35:17;95808.34;;;21.84;45.92
65614;BME280;52283;49.292;10.572;2023-04-22T11:37:45;95826.50;;;21.16;48.88
65614;BME280;52283;49.292;10.572;2023-04-22T11:40:15;95826.63;;;20.12;50.54
65614;BME280;52283;49.292;10.572;2023-04-22T11:42:42;95802.34;;;20.19;47.69
65614;BME280;52283;49.292;10.572;2023-04-22T11:45:09;95816.84;;;20.75;47.80
65614;BME280;52283;49.292;10.572;2023-04-22T11:47:37;95803.28;;;21.10;44.53
65614;BME280;52283;49.292;10.572;2023-04-22T11:50:07;95791.91;;;21.27;41.03
65614;BME280;52283;49.292;10.572;2023-04-22T11:52:45;95787.19;;;20.85;39.43
65614;BME280;52283;49.292;10.572;2023-04-22T11:55:12;95792.25;;;21.14;40.13
65614;BME280;52283;49.292;10.572;2023-04-22T11:57:40;95790.72;;;21.03;41.21
65614;BME280;52283;49.292;10.572;2023-04-22T12:00:10;95781.44;;;20.76;40.43
65614;BME280;52283;49.292;10.572;2023-04-22T12:02:38;95792.03;;;21.02;40.93
65614;BME280;52283;49.292;10.572;2023-04-22T12:05:08;95799.91;;;21.21;40.89
65614;BME280;52283;49.292;10.572;2023-04-22T12:07:36;95784.34;;;21.49;41.86
65614;BME280;52283;49.292;10.572;2023-04-22T12:10:04;95783.59;;;21.21;40.39
65614;BME280;52283;49.292;10.572;2023-04-22T12:12:32;95780.47;;;21.54;39.15
65614;BME280;52283;49.292;10.572;2023-04-22T12:15:06;95781.09;;;20.98;40.11
65614;BME280;52283;49.292;10.572;2023-04-22T12:17:33;95791.22;;;21.55;41.10
65614;BME280;52283;49.292;10.572;2023-04-22T12:19:59;95771.81;;;21.81;39.03
65614;BME280;52283;49.292;10.572;2023-04-22T12:22:28;95769.81;;;21.45;37.59
65614;BME280;52283;49.292;10.572;2023-04-22T12:24:57;95746.66;;;21.21;37.84
65614;BME280;52283;49.292;10.572;2023-04-22T12:27:24;95747.00;;;21.91;38.32
65614;BME280;52283;49.292;10.572;2023-04-22T12:29:52;95749.16;;;22.29;38.66
65614;BME280;52283;49.292;10.572;2023-04-22T12:32:19;95758.50;;;21.74;38.15
65614;BME280;52283;49.292;10.572;2023-04-22T12:34:46;95757.59;;;21.71;39.24
65614;BME280;52283;49.292;10.572;2023-04-22T12:37:12;95751.88;;;21.61;39.41
65614;BME280;52283;49.292;10.572;2023-04-22T12:39:40;95752.34;;;21.21;40.05
65614;BME280;52283;49.292;10.572;2023-04-22T12:42:06;95756.38;;;21.55;40.41
65614;BME280;52283;49.292;10.572;2023-04-22T12:44:33;95766.66;;;22.35;39.77
65614;BME280;52283;49.292;10.572;2023-04-22T12:47:00;95767.69;;;22.49;40.86
65614;BME280;52283;49.292;10.572;2023-04-22T12:49:27;95749.16;;;22.99;37.88